createdAt,value
2019-02-24T00:01:43.387Z,12.90
2019-02-24T00:04:11.846Z,11.33
2019-02-24T00:06:40.262Z,9.90
2019-02-24T00:09:08.721Z,10.88
2019-02-24T00:11:37.223Z,13.83
2019-02-24T00:14:05.644Z,10.80
2019-02-24T00:16:34.087Z,10.93
2019-02-24T00:19:03.804Z,10.82
2019-02-24T00:21:32.390Z,11.83
2019-02-24T00:24:04.851Z,8.98
2019-02-24T00:26:33.262Z,10.15
2019-02-24T00:29:01.907Z,11.12
2019-02-24T00:31:30.393Z,10.58
2019-02-24T00:33:58.826Z,12.00
2019-02-24T00:36:27.274Z,7.65
2019-02-24T00:38:55.681Z,9.23
2019-02-24T00:41:24.323Z,10.53
2019-02-24T00:43:52.733Z,9.95
2019-02-24T00:46:21.181Z,11.43
2019-02-24T00:48:49.595Z,10.20
2019-02-24T00:51:18.037Z,9.08
2019-02-24T00:53:46.454Z,10.18
2019-02-24T00:56:14.914Z,9.58
2019-02-24T00:58:43.322Z,11.80
2019-02-24T01:01:11.765Z,10.00
2019-02-24T01:03:40.487Z,10.85
2019-02-24T01:06:08.898Z,11.08
2019-02-24T01:08:44.569Z,13.60
2019-02-24T01:11:12.983Z,9.38
2019-02-24T01:13:41.418Z,12.73
2019-02-24T01:16:09.838Z,12.23
2019-02-24T01:18:38.838Z,9.90
2019-02-24T01:21:07.259Z,8.80
2019-02-24T01:23:35.699Z,7.60
2019-02-24T01:26:07.929Z,12.15
2019-02-24T01:28:36.335Z,12.20
2019-02-24T01:31:04.794Z,11.35
2019-02-24T01:33:33.230Z,10.05
2019-02-24T01:36:01.658Z,9.85
2019-02-24T01:38:30.082Z,9.40
2019-02-24T01:40:58.519Z,10.53
2019-02-24T01:43:26.958Z,13.00
2019-02-24T01:45:55.378Z,9.83
2019-02-24T01:48:23.801Z,10.68
2019-02-24T01:50:52.255Z,10.90
2019-02-24T01:53:40.011Z,7.17
2019-02-24T01:56:08.450Z,11.28
2019-02-24T01:58:36.883Z,9.95
2019-02-24T02:01:05.329Z,14.38
2019-02-24T02:03:33.751Z,12.78
2019-02-24T02:06:02.190Z,13.53
2019-02-24T02:08:30.603Z,13.10
2019-02-24T02:11:02.901Z,9.25
2019-02-24T02:13:31.303Z,9.03
2019-02-24T02:15:59.741Z,12.40
2019-02-24T02:18:28.331Z,20.10
2019-02-24T02:20:56.745Z,9.10
2019-02-24T02:23:25.178Z,13.03
2019-02-24T02:25:57.989Z,11.85
2019-02-24T02:28:26.439Z,13.55
2019-02-24T02:30:54.923Z,11.28
2019-02-24T02:33:23.350Z,12.98
2019-02-24T02:35:51.768Z,13.48
2019-02-24T02:38:20.210Z,9.80
2019-02-24T02:40:52.171Z,11.10
2019-02-24T02:43:20.633Z,10.88
2019-02-24T02:45:49.059Z,8.68
2019-02-24T02:48:17.496Z,11.43
2019-02-24T02:50:45.910Z,10.58
2019-02-24T02:53:14.355Z,7.65
2019-02-24T02:55:46.219Z,10.55
2019-02-24T02:58:14.697Z,8.35
2019-02-24T03:00:43.147Z,10.63
2019-02-24T03:03:11.573Z,10.85
2019-02-24T03:05:41.744Z,7.97
2019-02-24T03:08:11.786Z,5.85
2019-02-24T03:10:44.177Z,7.92
2019-02-24T03:13:12.628Z,8.50
2019-02-24T03:15:41.058Z,10.00
2019-02-24T03:18:09.499Z,12.78
2019-02-24T03:20:37.987Z,8.50
2019-02-24T03:23:06.400Z,8.63
2019-02-24T03:25:34.925Z,9.58
2019-02-24T03:28:03.350Z,10.10
2019-02-24T03:30:31.784Z,9.93
2019-02-24T03:33:00.190Z,10.45
2019-02-24T03:35:28.648Z,12.05
2019-02-24T03:37:57.091Z,9.68
2019-02-24T03:40:25.535Z,10.35
2019-02-24T03:42:53.989Z,8.58
2019-02-24T03:45:22.416Z,9.30
2019-02-24T03:47:50.854Z,9.20
2019-02-24T03:50:19.273Z,10.98
2019-02-24T03:52:47.767Z,7.10
2019-02-24T03:55:16.235Z,10.43
2019-02-24T03:57:44.716Z,9.88
2019-02-24T04:00:13.219Z,13.95
2019-02-24T04:02:41.636Z,10.63
2019-02-24T04:05:10.154Z,9.98
2019-02-24T04:07:38.583Z,5.42
2019-02-24T04:10:07.774Z,9.85
2019-02-24T04:12:36.257Z,7.45
2019-02-24T04:15:06.104Z,5.75
2019-02-24T04:17:34.534Z,7.10
2019-02-24T04:20:03.147Z,11.45
2019-02-24T04:22:31.578Z,8.95
2019-02-24T04:25:00.011Z,7.20
2019-02-24T04:27:28.471Z,8.28
2019-02-24T04:29:56.879Z,10.60
2019-02-24T04:32:25.314Z,5.67
2019-02-24T04:34:53.726Z,7.97
2019-02-24T04:37:22.338Z,7.25
2019-02-24T04:39:50.773Z,7.08
2019-02-24T04:42:19.178Z,8.85
2019-02-24T04:44:47.624Z,7.05
2019-02-24T04:47:16.031Z,10.70
2019-02-24T04:49:44.470Z,7.97
2019-02-24T04:52:12.878Z,9.40
2019-02-24T04:54:41.370Z,13.25
2019-02-24T04:57:13.064Z,8.45
2019-02-24T04:59:41.474Z,10.88
2019-02-24T05:02:09.995Z,7.20
2019-02-24T05:04:38.415Z,7.58
2019-02-24T05:07:06.819Z,9.18
2019-02-24T05:09:35.275Z,8.70
2019-02-24T05:12:03.722Z,11.28
2019-02-24T05:14:32.121Z,6.95
2019-02-24T05:17:00.594Z,6.90
2019-02-24T05:19:29.017Z,11.65
2019-02-24T05:21:57.778Z,9.35
2019-02-24T05:24:26.190Z,9.50
2019-02-24T05:26:54.634Z,8.25
2019-02-24T05:29:23.055Z,10.68
2019-02-24T05:31:51.490Z,7.60
2019-02-24T05:34:19.915Z,12.73
2019-02-24T05:36:48.326Z,7.40
2019-02-24T05:39:16.756Z,11.75
2019-02-24T05:41:45.224Z,7.50
2019-02-24T05:44:13.658Z,7.80
2019-02-24T05:46:42.147Z,6.33
2019-02-24T05:49:10.553Z,7.97
2019-02-24T05:51:38.989Z,10.10
2019-02-24T05:54:07.409Z,7.95
2019-02-24T05:56:35.842Z,10.68
2019-02-24T05:59:04.243Z,7.60
2019-02-24T06:01:32.689Z,7.40
2019-02-24T06:04:01.103Z,10.00
2019-02-24T06:06:29.616Z,7.65
2019-02-24T06:08:58.062Z,9.10
2019-02-24T06:11:26.504Z,5.58
2019-02-24T06:13:58.023Z,11.22
2019-02-24T06:16:26.442Z,7.05
2019-02-24T06:18:54.902Z,9.30
2019-02-24T06:21:23.310Z,8.98
2019-02-24T06:23:51.761Z,17.30
2019-02-24T06:26:20.178Z,10.88
2019-02-24T06:28:55.699Z,15.72
2019-02-24T06:31:24.595Z,11.75
2019-02-24T06:33:53.075Z,9.35
2019-02-24T06:36:21.476Z,9.78
2019-02-24T06:38:49.950Z,10.15
2019-02-24T06:41:18.407Z,5.47
2019-02-24T06:43:46.853Z,6.15
2019-02-24T06:46:15.282Z,8.10
2019-02-24T06:48:43.724Z,8.68
2019-02-24T06:51:12.149Z,9.18
2019-02-24T06:53:40.578Z,6.62
2019-02-24T06:56:09.041Z,9.48
2019-02-24T06:58:37.469Z,12.25
2019-02-24T07:01:05.877Z,10.72
2019-02-24T07:03:34.298Z,11.95
2019-02-24T07:06:02.746Z,7.30
2019-02-24T07:08:31.158Z,7.67
2019-02-24T07:10:59.618Z,13.18
2019-02-24T07:13:28.079Z,7.65
2019-02-24T07:15:56.625Z,10.63
2019-02-24T07:18:25.087Z,7.17
2019-02-24T07:20:53.525Z,11.95
2019-02-24T07:23:21.971Z,8.35
2019-02-24T07:25:50.371Z,11.18
2019-02-24T07:28:18.818Z,6.53
2019-02-24T07:30:47.239Z,10.63
2019-02-24T07:33:15.798Z,9.18
2019-02-24T07:35:44.282Z,11.25
2019-02-24T07:38:12.696Z,8.33
2019-02-24T07:40:41.145Z,9.75
2019-02-24T07:43:09.578Z,8.80
2019-02-24T07:45:38.059Z,15.25
2019-02-24T07:48:06.486Z,12.18
2019-02-24T07:50:34.922Z,6.90
2019-02-24T07:53:03.321Z,9.60
2019-02-24T07:55:31.792Z,7.10
2019-02-24T07:58:00.230Z,10.63
2019-02-24T08:00:32.620Z,9.03
2019-02-24T08:03:01.106Z,10.98
2019-02-24T08:05:29.594Z,10.50
2019-02-24T08:07:58.074Z,12.68
2019-02-24T08:10:26.472Z,10.38
2019-02-24T08:12:54.883Z,9.95
2019-02-24T08:15:23.333Z,10.53
2019-02-24T08:17:51.742Z,18.42
2019-02-24T08:20:20.159Z,8.80
2019-02-24T08:22:48.699Z,7.90
2019-02-24T08:25:17.134Z,12.55
2019-02-24T08:27:45.529Z,12.37
2019-02-24T08:30:14.430Z,8.03
2019-02-24T08:32:42.867Z,8.85
2019-02-24T08:35:11.296Z,13.15
2019-02-24T08:37:39.770Z,16.25
2019-02-24T08:40:09.110Z,6.65
2019-02-24T08:42:37.552Z,5.65
2019-02-24T08:45:09.981Z,7.60
2019-02-24T08:47:38.397Z,4.67
2019-02-24T08:50:09.487Z,6.60
2019-02-24T08:52:37.900Z,4.70
2019-02-24T08:55:08.077Z,6.35
2019-02-24T08:57:36.473Z,8.50
2019-02-24T09:00:07.976Z,7.15
2019-02-24T09:02:39.779Z,6.72
2019-02-24T09:05:08.197Z,8.83
2019-02-24T09:07:36.586Z,9.23
2019-02-24T09:10:07.950Z,4.67
2019-02-24T09:12:36.362Z,6.67
2019-02-24T09:15:08.187Z,5.47
2019-02-24T09:17:36.587Z,6.05
2019-02-24T09:20:08.252Z,7.30
2019-02-24T09:22:36.721Z,6.40
2019-02-24T09:25:05.975Z,8.80
2019-02-24T09:27:34.410Z,7.22
2019-02-24T09:30:03.447Z,6.80
2019-02-24T09:32:34.795Z,7.30
2019-02-24T09:35:03.365Z,7.97
2019-02-24T09:37:31.756Z,7.90
2019-02-24T09:40:00.283Z,6.65
2019-02-24T09:42:29.014Z,8.05
2019-02-24T09:44:58.438Z,5.53
2019-02-24T09:47:30.087Z,6.80
2019-02-24T09:49:58.513Z,7.30
2019-02-24T09:52:26.934Z,8.58
2019-02-24T09:54:55.374Z,6.80
2019-02-24T09:57:24.082Z,15.05
2019-02-24T09:59:52.516Z,5.42
2019-02-24T10:02:20.921Z,6.37
2019-02-24T10:04:49.428Z,6.47
2019-02-24T10:07:17.841Z,6.85
2019-02-24T10:09:46.333Z,7.58
2019-02-24T10:12:14.741Z,8.93
2019-02-24T10:14:43.194Z,7.90
2019-02-24T10:17:11.610Z,7.65
2019-02-24T10:19:40.012Z,6.85
2019-02-24T10:22:08.457Z,7.47
2019-02-24T10:24:36.917Z,10.93
2019-02-24T10:27:05.461Z,6.28
2019-02-24T10:29:33.903Z,8.00
2019-02-24T10:32:02.334Z,7.30
2019-02-24T10:34:30.762Z,9.18
2019-02-24T10:36:59.472Z,10.38
2019-02-24T10:39:29.847Z,13.88
2019-02-24T10:41:58.119Z,6.37
2019-02-24T10:44:26.515Z,6.75
2019-02-24T10:46:54.920Z,8.98
2019-02-24T10:49:23.345Z,8.05
2019-02-24T10:51:51.792Z,6.78
2019-02-24T10:54:20.222Z,5.87
2019-02-24T10:56:48.800Z,8.23
2019-02-24T10:59:17.248Z,7.50
2019-02-24T11:01:45.686Z,5.67
2019-02-24T11:04:14.097Z,8.30
2019-02-24T11:06:42.535Z,7.33
2019-02-24T11:09:11.199Z,8.10
2019-02-24T11:11:39.691Z,6.83
2019-02-24T11:14:08.113Z,10.05
2019-02-24T11:16:36.568Z,10.63
2019-02-24T11:19:05.002Z,5.95
2019-02-24T11:21:33.587Z,7.08
2019-02-24T11:24:01.990Z,4.87
2019-02-24T11:26:30.418Z,8.83
2019-02-24T11:28:58.842Z,6.45
2019-02-24T11:31:27.274Z,8.10
2019-02-24T11:33:55.848Z,9.30
2019-02-24T11:36:28.392Z,5.53
2019-02-24T11:38:56.835Z,10.05
2019-02-24T11:41:25.246Z,7.05
2019-02-24T11:43:53.696Z,7.92
2019-02-24T11:46:22.268Z,7.83
2019-02-24T11:48:50.743Z,9.45
2019-02-24T11:51:19.158Z,8.95
2019-02-24T11:53:47.609Z,6.00
2019-02-24T11:56:16.054Z,10.03
2019-02-24T11:58:44.464Z,7.40
2019-02-24T12:01:12.909Z,12.20
2019-02-24T12:03:41.322Z,9.90
2019-02-24T12:06:09.774Z,6.75
2019-02-24T12:08:38.256Z,12.40
2019-02-24T12:11:06.677Z,8.85
2019-02-24T12:13:35.091Z,7.92
2019-02-24T12:16:03.523Z,6.78
2019-02-24T12:18:31.934Z,6.03
2019-02-24T12:21:04.200Z,14.03
2019-02-24T12:23:32.590Z,5.60
2019-02-24T12:26:01.031Z,9.83
2019-02-24T12:28:29.438Z,5.40
2019-02-24T12:30:57.858Z,11.43
2019-02-24T12:33:26.497Z,7.95
2019-02-24T12:35:54.905Z,7.20
2019-02-24T12:38:23.771Z,7.15
2019-02-24T12:40:52.261Z,7.65
2019-02-24T12:43:20.682Z,12.45
2019-02-24T12:45:49.184Z,15.35
2019-02-24T12:48:17.743Z,7.83
2019-02-24T12:50:49.610Z,9.00
2019-02-24T12:53:18.015Z,7.17
2019-02-24T12:55:46.578Z,9.35
2019-02-24T12:58:16.526Z,7.28
2019-02-24T13:00:45.002Z,11.05
2019-02-24T13:03:13.474Z,6.62
2019-02-24T13:05:45.813Z,7.75
2019-02-24T13:08:14.288Z,6.33
2019-02-24T13:10:42.778Z,11.38
2019-02-24T13:13:11.206Z,7.25
2019-02-24T13:15:39.926Z,7.70
2019-02-24T13:18:08.386Z,7.20
2019-02-24T13:20:37.078Z,6.40
2019-02-24T13:23:05.774Z,6.72
2019-02-24T13:25:34.202Z,5.70
2019-02-24T13:28:02.610Z,8.18
2019-02-24T13:30:31.046Z,6.62
2019-02-24T13:32:59.567Z,9.25
2019-02-24T13:35:28.025Z,5.95
2019-02-24T13:37:56.980Z,11.25
2019-02-24T13:40:25.426Z,6.60
2019-02-24T13:42:53.849Z,9.58
2019-02-24T13:45:23.083Z,11.57
2019-02-24T13:47:51.510Z,4.65
2019-02-24T13:50:19.970Z,6.37
2019-02-24T13:52:48.421Z,6.15
2019-02-24T13:55:16.918Z,7.97
2019-02-24T13:57:45.378Z,8.65
2019-02-24T14:00:22.932Z,9.85
2019-02-24T14:02:51.348Z,8.50
2019-02-24T14:05:19.767Z,7.58
2019-02-24T14:07:48.248Z,4.08
2019-02-24T14:10:16.661Z,5.28
2019-02-24T14:12:45.096Z,7.33
2019-02-24T14:15:16.761Z,7.40
2019-02-24T14:17:45.622Z,6.15
2019-02-24T14:20:16.283Z,5.05
2019-02-24T14:22:47.770Z,9.05
2019-02-24T14:25:17.114Z,5.72
2019-02-24T14:27:45.523Z,5.65
2019-02-24T14:30:18.861Z,9.05
2019-02-24T14:32:47.472Z,5.22
2019-02-24T14:35:18.734Z,5.05
2019-02-24T14:37:47.222Z,4.15
2019-02-24T14:40:15.627Z,5.95
2019-02-24T14:42:44.155Z,6.22
2019-02-24T14:45:17.430Z,5.25
2019-02-24T14:47:45.941Z,5.20
2019-02-24T14:50:14.545Z,7.72
2019-02-24T14:52:42.982Z,7.53
2019-02-24T14:55:15.291Z,9.60
2019-02-24T14:57:43.773Z,4.75
2019-02-24T15:00:16.899Z,7.25
2019-02-24T15:02:45.318Z,5.92
2019-02-24T15:05:16.502Z,5.85
2019-02-24T15:07:44.642Z,7.47
2019-02-24T15:10:17.971Z,7.33
2019-02-24T15:12:46.466Z,4.58
2019-02-24T15:15:32.899Z,6.83
2019-02-24T15:17:57.052Z,8.23
2019-02-24T15:20:25.462Z,5.28
2019-02-24T15:22:58.025Z,5.75
2019-02-24T15:25:26.533Z,7.58
2019-02-24T15:27:55.003Z,6.65
2019-02-24T15:30:34.783Z,4.30
2019-02-24T15:33:03.206Z,4.47
2019-02-24T15:35:31.608Z,4.55
2019-02-24T15:38:04.126Z,3.27
2019-02-24T15:40:32.553Z,3.35
2019-02-24T15:43:00.995Z,4.85
2019-02-24T15:45:29.398Z,3.87
2019-02-24T15:47:57.838Z,8.10
2019-02-24T15:50:26.402Z,7.28
2019-02-24T15:52:54.870Z,5.97
2019-02-24T15:55:23.287Z,8.23
2019-02-24T15:57:51.682Z,5.00
2019-02-24T16:00:22.930Z,6.97
2019-02-24T16:03:00.725Z,4.75
2019-02-24T16:05:21.556Z,4.95
2019-02-24T16:07:50.581Z,5.90
2019-02-24T16:10:20.662Z,6.80
2019-02-24T16:12:49.186Z,6.45
2019-02-24T16:15:19.843Z,4.30
2019-02-24T16:17:48.366Z,6.95
2019-02-24T16:20:31.627Z,7.78
2019-02-24T16:23:00.378Z,6.95
2019-02-24T16:25:28.985Z,6.05
2019-02-24T16:27:57.694Z,12.05
2019-02-24T16:30:26.150Z,7.95
2019-02-24T16:32:54.664Z,9.80
2019-02-24T16:35:23.098Z,8.78
2019-02-24T16:37:51.534Z,7.72
2019-02-24T16:40:25.565Z,14.45
2019-02-24T16:42:54.182Z,8.63
2019-02-24T16:45:24.717Z,15.50
2019-02-24T16:47:53.338Z,10.13
2019-02-24T16:50:24.115Z,8.75
2019-02-24T16:52:52.946Z,7.17
2019-02-24T16:55:21.460Z,9.68
2019-02-24T16:57:49.872Z,6.62
2019-02-24T17:00:23.405Z,6.83
2019-02-24T17:02:51.895Z,8.75
2019-02-24T17:05:20.492Z,6.37
2019-02-24T17:07:49.352Z,9.00
2019-02-24T17:10:20.970Z,8.38
2019-02-24T17:12:49.601Z,8.18
2019-02-24T17:15:18.062Z,9.10
2019-02-24T17:17:46.494Z,12.35
2019-02-24T17:20:20.295Z,9.43
2019-02-24T17:22:48.926Z,7.17
2019-02-24T17:25:20.750Z,14.20
2019-02-24T17:27:49.224Z,8.05
2019-02-24T17:30:17.975Z,10.03
2019-02-24T17:32:46.494Z,10.13
2019-02-24T17:35:15.309Z,9.45
2019-02-24T17:37:43.728Z,11.68
2019-02-24T17:40:19.415Z,8.68
2019-02-24T17:42:47.717Z,11.00
2019-02-24T17:45:16.239Z,11.08
2019-02-24T17:47:44.701Z,12.80
2019-02-24T17:50:15.155Z,10.82
2019-02-24T17:52:45.097Z,13.78
2019-02-24T17:55:23.563Z,17.52
2019-02-24T17:57:52.427Z,11.68
2019-02-24T18:00:32.651Z,16.45
2019-02-24T18:03:01.390Z,13.43
2019-02-24T18:05:29.865Z,15.45
2019-02-24T18:07:58.399Z,9.85
2019-02-24T18:10:26.938Z,10.55
2019-02-24T18:12:55.458Z,14.05
2019-02-24T18:15:43.479Z,16.32
2019-02-24T18:18:11.903Z,13.65
2019-02-24T18:20:40.563Z,14.15
2019-02-24T18:23:08.940Z,14.20
2019-02-24T18:25:37.380Z,8.85
2019-02-24T18:28:05.907Z,11.53
2019-02-24T18:30:34.540Z,11.08
2019-02-24T18:33:02.969Z,10.28
2019-02-24T18:35:31.410Z,14.63
2019-02-24T18:37:59.838Z,12.20
2019-02-24T18:40:28.578Z,12.95
2019-02-24T18:43:00.304Z,13.60
2019-02-24T18:45:27.233Z,23.05
2019-02-24T18:47:55.688Z,13.70
2019-02-24T18:50:24.174Z,15.13
2019-02-24T18:52:53.003Z,11.97
2019-02-24T18:55:21.434Z,16.95
2019-02-24T18:57:49.988Z,15.70
2019-02-24T19:00:20.562Z,14.65
2019-02-24T19:02:49.041Z,14.68
2019-02-24T19:05:17.533Z,16.15
2019-02-24T19:07:46.306Z,16.82
2019-02-24T19:10:21.340Z,13.70
2019-02-24T19:12:50.563Z,18.02
2019-02-24T19:15:21.083Z,31.50
2019-02-24T19:17:49.567Z,13.85
2019-02-24T19:20:19.819Z,10.82
2019-02-24T19:22:48.319Z,15.25
2019-02-24T19:25:17.339Z,14.65
2019-02-24T19:27:45.745Z,8.73
2019-02-24T19:30:18.275Z,17.73
2019-02-24T19:32:47.041Z,11.70
2019-02-24T19:35:16.626Z,21.00
2019-02-24T19:37:45.181Z,15.88
2019-02-24T19:40:16.248Z,16.85
2019-02-24T19:42:45.273Z,14.93
2019-02-24T19:45:18.019Z,13.68
2019-02-24T19:47:46.478Z,15.85
2019-02-24T19:50:17.120Z,14.10
2019-02-24T19:52:45.583Z,11.63
2019-02-24T19:55:15.534Z,18.15
2019-02-24T19:57:47.081Z,17.27
2019-02-24T20:00:22.972Z,12.18
2019-02-24T20:02:51.661Z,16.55
2019-02-24T20:05:21.025Z,11.43
2019-02-24T20:07:50.980Z,17.90
2019-02-24T20:10:24.593Z,13.45
2019-02-24T20:12:53.170Z,10.15
2019-02-24T20:15:21.575Z,17.30
2019-02-24T20:17:50.386Z,16.95
2019-02-24T20:20:22.053Z,15.00
2019-02-24T20:22:50.756Z,13.20
2019-02-24T20:25:21.102Z,11.60
2019-02-24T20:27:53.734Z,17.60
2019-02-24T20:30:27.451Z,14.47
2019-02-24T20:32:56.162Z,16.45
2019-02-24T20:35:24.786Z,14.78
2019-02-24T20:37:53.197Z,14.83
2019-02-24T20:40:21.870Z,16.45
2019-02-24T20:42:53.514Z,16.80
2019-02-24T20:45:23.163Z,19.07
2019-02-24T20:47:51.668Z,14.90
2019-02-24T20:50:28.420Z,13.62
2019-02-24T20:52:57.339Z,25.37
2019-02-24T20:55:28.647Z,17.98
2019-02-24T20:57:57.140Z,17.87
2019-02-24T21:00:44.095Z,16.10
2019-02-24T21:03:12.815Z,12.35
2019-02-24T21:05:41.217Z,12.95
2019-02-24T21:08:10.171Z,13.30
2019-02-24T21:10:38.667Z,15.40
2019-02-24T21:13:07.240Z,16.87
2019-02-24T21:15:35.726Z,11.05
2019-02-24T21:18:05.083Z,19.05
2019-02-24T21:20:34.352Z,18.30
2019-02-24T21:23:02.831Z,17.60
2019-02-24T21:25:31.243Z,20.12
2019-02-24T21:27:59.673Z,21.55
2019-02-24T21:30:28.146Z,14.15
2019-02-24T21:32:56.603Z,11.05
2019-02-24T21:35:25.007Z,9.85
2019-02-24T21:37:53.438Z,14.23
2019-02-24T21:40:23.444Z,13.55
2019-02-24T21:42:52.062Z,17.77
2019-02-24T21:45:25.673Z,13.80
2019-02-24T21:47:54.104Z,14.60
2019-02-24T21:50:22.546Z,17.65
2019-02-24T21:52:51.077Z,17.82
2019-02-24T21:55:19.591Z,18.23
2019-02-24T21:57:48.005Z,24.87
2019-02-24T22:00:21.982Z,27.93
2019-02-24T22:02:50.394Z,13.93
2019-02-24T22:05:18.825Z,16.55
2019-02-24T22:07:47.235Z,20.50
2019-02-24T22:10:16.346Z,19.25
2019-02-24T22:12:45.018Z,22.55
2019-02-24T22:15:24.624Z,18.85
2019-02-24T22:17:53.123Z,19.62
2019-02-24T22:20:21.535Z,16.52
2019-02-24T22:22:49.984Z,22.50
2019-02-24T22:25:18.627Z,19.25
2019-02-24T22:27:47.090Z,13.78
2019-02-24T22:30:21.014Z,22.60
2019-02-24T22:32:49.525Z,19.37
2019-02-24T22:35:17.974Z,21.73
2019-02-24T22:37:46.474Z,20.82
2019-02-24T22:40:16.921Z,19.17
2019-02-24T22:42:46.592Z,17.90
2019-02-24T22:45:19.197Z,16.50
2019-02-24T22:47:47.990Z,13.72
2019-02-24T22:50:17.222Z,14.83
2019-02-24T22:52:46.466Z,20.57
2019-02-24T22:55:17.212Z,13.70
2019-02-24T22:57:45.623Z,17.17
2019-02-24T23:00:36.981Z,17.65
2019-02-24T23:03:05.833Z,19.55
2019-02-24T23:05:34.255Z,16.17
2019-02-24T23:08:02.695Z,17.07
2019-02-24T23:10:31.139Z,18.10
2019-02-24T23:12:59.639Z,15.20
2019-02-24T23:15:31.172Z,16.42
2019-02-24T23:17:59.622Z,19.05
2019-02-24T23:20:28.038Z,18.85
2019-02-24T23:22:56.462Z,17.55
2019-02-24T23:25:24.895Z,19.35
2019-02-24T23:27:53.330Z,24.85
2019-02-24T23:30:21.840Z,15.78
2019-02-24T23:32:50.285Z,20.02
2019-02-24T23:35:18.736Z,19.95
2019-02-24T23:37:47.279Z,20.95
2019-02-24T23:40:15.730Z,16.02
2019-02-24T23:42:44.181Z,19.98
2019-02-24T23:45:13.013Z,22.05
2019-02-24T23:47:41.459Z,19.52
2019-02-24T23:50:11.525Z,15.93
2019-02-24T23:52:39.956Z,17.85
2019-02-24T23:55:09.936Z,12.28
2019-02-24T23:57:38.382Z,21.65
